createdAt,value
2023-03-27T00:01:26.892Z,5.20
2023-03-27T00:03:54.443Z,5.20
2023-03-27T00:06:25.316Z,4.65
2023-03-27T00:08:53.670Z,5.95
2023-03-27T00:11:22.584Z,4.95
2023-03-27T00:13:54.652Z,5.07
2023-03-27T00:18:54.620Z,6.13
2023-03-27T00:21:23.462Z,4.70
2023-03-27T00:23:50.725Z,6.40
2023-03-27T00:26:18.584Z,4.68
2023-03-27T00:28:46.377Z,4.50
2023-03-27T00:31:17.001Z,5.93
2023-03-27T00:33:44.763Z,5.93
2023-03-27T00:36:12.495Z,5.22
2023-03-27T00:38:40.110Z,4.85
2023-03-27T00:41:08.869Z,5.57
2023-03-27T00:43:43.705Z,5.38
2023-03-27T00:46:49.872Z,4.57
2023-03-27T00:49:18.080Z,7.00
2023-03-27T00:51:48.465Z,5.20
2023-03-27T00:54:25.891Z,5.10
2023-03-27T00:57:05.406Z,5.22
2023-03-27T00:59:39.689Z,9.75
2023-03-27T01:02:09.490Z,6.88
2023-03-27T01:04:38.966Z,6.00
2023-03-27T01:07:11.400Z,6.60
2023-03-27T01:09:39.862Z,6.38
2023-03-27T01:12:32.088Z,6.90
2023-03-27T01:15:34.916Z,6.90
2023-03-27T01:18:39.259Z,6.03
2023-03-27T01:21:41.980Z,10.30
2023-03-27T01:24:38.840Z,7.82
2023-03-27T01:28:05.311Z,6.80
2023-03-27T01:31:15.850Z,9.73
2023-03-27T01:34:10.327Z,11.15
2023-03-27T01:37:13.461Z,9.95
2023-03-27T01:40:18.483Z,10.93
2023-03-27T01:43:11.310Z,12.27
2023-03-27T01:45:57.575Z,13.38
2023-03-27T01:48:56.023Z,14.88
2023-03-27T01:51:48.701Z,12.20
2023-03-27T01:54:44.364Z,14.65
2023-03-27T01:57:25.170Z,10.52
2023-03-27T02:00:18.484Z,16.02
2023-03-27T02:03:19.428Z,10.23
2023-03-27T02:05:56.809Z,10.38
2023-03-27T02:08:55.597Z,13.48
2023-03-27T02:11:30.144Z,12.90
2023-03-27T02:14:14.738Z,11.63
2023-03-27T02:16:49.417Z,8.82
2023-03-27T02:19:35.163Z,6.55
2023-03-27T02:22:03.663Z,6.38
2023-03-27T02:24:43.753Z,5.50
2023-03-27T02:27:29.626Z,6.60
2023-03-27T02:30:31.458Z,5.75
2023-03-27T02:33:27.505Z,5.15
2023-03-27T02:36:05.490Z,8.13
2023-03-27T02:38:47.867Z,7.72
2023-03-27T02:41:36.535Z,12.47
2023-03-27T02:44:35.741Z,5.85
2023-03-27T02:47:34.186Z,6.47
2023-03-27T02:50:13.451Z,6.45
2023-03-27T02:52:51.310Z,7.20
2023-03-27T02:55:29.366Z,5.53
2023-03-27T02:58:06.011Z,5.55
2023-03-27T03:01:00.493Z,4.38
2023-03-27T03:04:28.682Z,4.80
2023-03-27T03:07:11.543Z,5.78
2023-03-27T03:09:41.697Z,5.18
2023-03-27T03:12:10.129Z,5.07
2023-03-27T03:14:46.784Z,6.05
2023-03-27T03:17:16.842Z,5.05
2023-03-27T03:19:45.575Z,4.50
2023-03-27T03:22:13.623Z,4.53
2023-03-27T03:24:43.996Z,7.05
2023-03-27T03:27:15.521Z,4.30
2023-03-27T03:29:48.816Z,3.85
2023-03-27T03:32:19.888Z,4.15
2023-03-27T03:34:49.944Z,6.38
2023-03-27T03:37:17.814Z,4.53
2023-03-27T03:39:45.093Z,5.82
2023-03-27T03:42:22.919Z,5.68
2023-03-27T03:44:52.982Z,5.93
2023-03-27T03:47:22.715Z,6.38
2023-03-27T03:49:51.190Z,6.07
2023-03-27T03:52:18.967Z,6.13
2023-03-27T03:54:46.784Z,5.40
2023-03-27T03:57:15.345Z,6.25
2023-03-27T03:59:46.896Z,6.43
2023-03-27T04:02:30.283Z,7.13
2023-03-27T04:05:08.610Z,5.05
2023-03-27T04:07:40.306Z,5.47
2023-03-27T04:10:41.751Z,5.03
2023-03-27T04:13:18.962Z,6.37
2023-03-27T04:15:55.599Z,5.22
2023-03-27T04:18:33.241Z,7.65
2023-03-27T04:21:05.048Z,5.55
2023-03-27T04:23:33.378Z,6.07
2023-03-27T04:26:03.947Z,7.25
2023-03-27T04:28:57.566Z,6.03
2023-03-27T04:31:46.902Z,5.38
2023-03-27T04:34:33.112Z,6.13
2023-03-27T04:37:07.671Z,6.95
2023-03-27T04:39:42.891Z,6.47
2023-03-27T04:42:11.318Z,6.65
2023-03-27T04:44:39.816Z,9.00
2023-03-27T04:47:08.926Z,7.57
2023-03-27T04:49:50.742Z,7.20
2023-03-27T04:52:22.428Z,7.80
2023-03-27T04:54:50.096Z,7.82
2023-03-27T04:57:19.286Z,8.25
2023-03-27T04:59:49.246Z,10.40
2023-03-27T05:02:43.073Z,9.55
2023-03-27T05:05:17.499Z,9.88
2023-03-27T05:07:48.168Z,9.43
2023-03-27T05:10:21.665Z,9.20
2023-03-27T05:12:54.508Z,8.60
2023-03-27T05:15:24.333Z,9.18
2023-03-27T05:17:54.993Z,9.65
2023-03-27T05:20:25.940Z,9.95
2023-03-27T05:22:55.468Z,9.65
2023-03-27T05:25:27.944Z,9.52
2023-03-27T05:27:56.452Z,10.18
2023-03-27T05:30:28.709Z,11.02
2023-03-27T05:33:20.629Z,9.88
2023-03-27T05:35:50.186Z,10.35
2023-03-27T05:38:18.454Z,10.60
2023-03-27T05:41:08.877Z,10.63
2023-03-27T05:43:40.904Z,8.13
2023-03-27T05:46:08.648Z,11.82
2023-03-27T05:48:38.788Z,8.40
2023-03-27T05:51:07.356Z,9.98
2023-03-27T05:53:36.358Z,7.40
2023-03-27T05:56:18.011Z,7.28
2023-03-27T05:58:53.829Z,7.18
2023-03-27T06:01:23.772Z,7.95
2023-03-27T06:03:55.997Z,8.63
2023-03-27T06:06:41.595Z,6.88
2023-03-27T06:09:10.055Z,6.85
2023-03-27T06:11:39.656Z,6.03
2023-03-27T06:14:07.460Z,7.35
2023-03-27T06:17:04.398Z,7.20
2023-03-27T06:19:51.987Z,7.55
2023-03-27T06:22:19.495Z,7.00
2023-03-27T06:24:48.553Z,7.60
2023-03-27T06:27:23.104Z,7.10
2023-03-27T06:29:50.643Z,6.82
2023-03-27T06:32:18.644Z,7.00
2023-03-27T06:34:51.158Z,8.77
2023-03-27T06:37:50.731Z,6.32
2023-03-27T06:40:23.119Z,7.65
2023-03-27T06:42:57.006Z,6.55
2023-03-27T06:45:40.407Z,7.38
2023-03-27T06:48:26.600Z,7.18
2023-03-27T06:50:57.006Z,8.10
2023-03-27T06:53:28.343Z,7.93
2023-03-27T06:55:58.008Z,6.78
2023-03-27T06:58:27.567Z,7.30
2023-03-27T07:00:55.646Z,8.02
2023-03-27T07:03:23.371Z,6.80
2023-03-27T07:06:19.784Z,5.75
2023-03-27T07:08:52.772Z,7.05
2023-03-27T07:11:20.214Z,9.48
2023-03-27T07:13:57.368Z,6.10
2023-03-27T07:16:30.306Z,7.20
2023-03-27T07:19:01.739Z,7.45
2023-03-27T07:21:31.125Z,6.40
2023-03-27T07:24:00.391Z,6.40
2023-03-27T07:26:34.172Z,6.82
2023-03-27T07:29:04.135Z,5.20
2023-03-27T07:31:51.030Z,6.47
2023-03-27T07:34:19.535Z,6.85
2023-03-27T07:37:18.709Z,5.97
2023-03-27T07:40:13.573Z,7.68
2023-03-27T07:42:48.337Z,7.22
2023-03-27T07:45:24.138Z,6.78
2023-03-27T07:48:12.089Z,6.45
2023-03-27T07:50:40.059Z,6.40
2023-03-27T07:53:07.907Z,6.22
2023-03-27T07:55:42.011Z,5.57
2023-03-27T07:58:10.131Z,8.85
2023-03-27T08:00:42.991Z,8.10
2023-03-27T08:03:14.721Z,5.95
2023-03-27T08:05:52.618Z,7.60
2023-03-27T08:08:20.502Z,5.65
2023-03-27T08:10:57.822Z,5.65
2023-03-27T08:13:29.800Z,5.85
2023-03-27T08:16:14.713Z,6.45
2023-03-27T08:18:43.016Z,5.68
2023-03-27T08:21:12.691Z,5.93
2023-03-27T08:23:41.046Z,6.22
2023-03-27T08:26:09.362Z,5.28
2023-03-27T08:28:57.032Z,5.75
2023-03-27T08:31:30.907Z,5.82
2023-03-27T08:34:02.575Z,7.03
2023-03-27T08:37:00.132Z,7.82
2023-03-27T08:39:38.999Z,5.22
2023-03-27T08:42:18.532Z,6.88
2023-03-27T08:44:55.284Z,7.72
2023-03-27T08:47:47.714Z,6.65
2023-03-27T08:50:36.854Z,6.88
2023-03-27T08:53:28.440Z,7.90
2023-03-27T08:55:58.555Z,8.55
2023-03-27T08:58:34.781Z,10.23
2023-03-27T09:01:42.011Z,4.90
2023-03-27T09:05:00.476Z,6.75
2023-03-27T09:08:01.919Z,6.78
2023-03-27T09:10:45.496Z,6.95
2023-03-27T09:13:46.396Z,6.30
2023-03-27T09:19:25.652Z,6.15
2023-03-27T09:22:22.359Z,4.35
2023-03-27T09:25:31.021Z,5.57
2023-03-27T09:28:00.501Z,7.47
2023-03-27T09:30:39.149Z,5.75
2023-03-27T09:33:24.685Z,5.05
2023-03-27T09:35:52.893Z,5.72
2023-03-27T09:38:33.419Z,5.82
2023-03-27T09:41:23.066Z,3.70
2023-03-27T09:44:13.122Z,4.68
2023-03-27T09:46:49.683Z,5.43
2023-03-27T09:49:20.003Z,4.45
2023-03-27T09:52:00.402Z,5.07
2023-03-27T09:54:55.882Z,6.38
2023-03-27T09:57:37.631Z,6.90
2023-03-27T10:00:32.104Z,7.95
2023-03-27T10:03:16.784Z,6.20
2023-03-27T10:05:48.765Z,6.43
2023-03-27T10:08:27.369Z,5.85
2023-03-27T10:11:14.735Z,7.03
2023-03-27T10:13:52.068Z,11.10
2023-03-27T10:16:23.812Z,7.93
2023-03-27T10:19:00.688Z,7.65
2023-03-27T10:21:42.910Z,7.97
2023-03-27T10:24:44.073Z,8.52
2023-03-27T10:27:43.667Z,9.43
2023-03-27T10:30:33.898Z,7.55
2023-03-27T10:33:41.338Z,9.35
2023-03-27T10:36:26.601Z,8.13
2023-03-27T10:39:02.268Z,11.95
2023-03-27T10:41:41.452Z,12.65
2023-03-27T10:44:25.677Z,8.48
2023-03-27T10:46:56.971Z,7.22
2023-03-27T10:49:54.784Z,6.18
2023-03-27T10:52:43.271Z,12.20
2023-03-27T10:55:41.773Z,7.82
2023-03-27T10:58:31.135Z,7.53
2023-03-27T11:01:18.665Z,7.50
2023-03-27T11:04:01.519Z,10.00
2023-03-27T11:06:42.108Z,8.45
2023-03-27T11:09:31.909Z,8.43
2023-03-27T11:12:17.113Z,12.15
2023-03-27T11:15:22.500Z,8.30
2023-03-27T11:18:09.617Z,7.93
2023-03-27T11:21:00.825Z,13.73
2023-03-27T11:23:42.586Z,16.80
2023-03-27T11:27:02.291Z,14.88
2023-03-27T11:29:41.619Z,10.25
2023-03-27T11:32:44.061Z,10.90
2023-03-27T11:35:21.715Z,11.68
2023-03-27T11:38:08.686Z,10.73
2023-03-27T11:40:49.916Z,14.00
2023-03-27T11:43:20.421Z,12.80
2023-03-27T11:46:33.403Z,10.15
2023-03-27T11:49:49.707Z,12.50
2023-03-27T11:52:53.953Z,7.47
2023-03-27T11:56:10.630Z,12.02
2023-03-27T11:59:14.696Z,10.10
2023-03-27T12:02:35.025Z,13.77
2023-03-27T12:05:43.514Z,9.82
2023-03-27T12:08:24.872Z,7.47
2023-03-27T12:11:01.606Z,10.82
2023-03-27T12:14:18.396Z,9.27
2023-03-27T12:17:26.315Z,6.72
2023-03-27T12:20:28.764Z,10.52
2023-03-27T12:23:41.558Z,11.25
2023-03-27T12:26:54.705Z,9.65
2023-03-27T12:30:23.005Z,8.43
2023-03-27T12:33:06.513Z,10.90
2023-03-27T12:35:43.635Z,10.88
2023-03-27T12:38:29.197Z,11.88
2023-03-27T12:44:01.572Z,9.25
2023-03-27T12:46:41.321Z,9.75
2023-03-27T12:49:12.254Z,10.13
2023-03-27T12:51:55.131Z,10.00
2023-03-27T12:55:13.985Z,10.95
2023-03-27T12:57:58.157Z,10.30
2023-03-27T13:01:00.129Z,9.95
2023-03-27T13:04:34.170Z,9.77
2023-03-27T13:07:57.649Z,8.63
2023-03-27T13:11:23.545Z,6.80
2023-03-27T13:14:38.816Z,6.57
2023-03-27T13:17:50.500Z,8.07
2023-03-27T13:21:03.542Z,7.75
2023-03-27T13:24:22.146Z,8.98
2023-03-27T13:27:14.381Z,8.40
2023-03-27T13:29:49.204Z,10.00
2023-03-27T13:32:40.797Z,9.52
2023-03-27T13:35:21.877Z,11.73
2023-03-27T13:37:49.291Z,16.17
2023-03-27T13:40:26.639Z,11.85
2023-03-27T13:43:25.342Z,9.52
2023-03-27T13:46:07.804Z,4.50
2023-03-27T13:49:27.350Z,8.65
2023-03-27T13:52:46.279Z,5.47
2023-03-27T13:55:36.853Z,6.82
2023-03-27T13:58:34.340Z,10.30
2023-03-27T14:01:34.343Z,9.48
2023-03-27T14:04:25.792Z,5.43
2023-03-27T14:07:39.715Z,7.93
2023-03-27T14:10:46.933Z,5.97
2023-03-27T14:13:46.732Z,7.50
2023-03-27T14:16:48.620Z,7.13
2023-03-27T14:19:26.569Z,5.55
2023-03-27T14:22:08.224Z,10.15
2023-03-27T14:25:14.648Z,5.22
2023-03-27T14:27:55.766Z,5.05
2023-03-27T14:30:47.128Z,5.88
2023-03-27T14:34:03.481Z,5.75
2023-03-27T14:36:34.230Z,3.38
2023-03-27T14:39:17.866Z,9.80
2023-03-27T14:42:01.011Z,9.65
2023-03-27T14:44:33.290Z,9.20
2023-03-27T14:47:13.095Z,6.75
2023-03-27T14:49:49.048Z,8.18
2023-03-27T14:52:30.436Z,7.47
2023-03-27T14:55:20.623Z,4.75
2023-03-27T14:58:10.892Z,8.23
2023-03-27T15:00:41.601Z,8.75
2023-03-27T15:03:26.429Z,9.65
2023-03-27T15:06:13.425Z,8.02
2023-03-27T15:08:53.652Z,5.10
2023-03-27T15:11:40.246Z,3.95
2023-03-27T15:14:26.078Z,7.15
2023-03-27T15:17:15.116Z,6.57
2023-03-27T15:20:10.384Z,7.28
2023-03-27T15:22:46.354Z,7.38
2023-03-27T15:25:25.997Z,8.55
2023-03-27T15:28:03.156Z,7.18
2023-03-27T15:30:43.608Z,6.47
2023-03-27T15:33:22.300Z,8.65
2023-03-27T15:35:56.419Z,9.13
2023-03-27T15:38:31.120Z,9.43
2023-03-27T15:41:15.214Z,8.20
2023-03-27T15:43:44.551Z,8.48
2023-03-27T15:46:20.483Z,7.85
2023-03-27T15:48:55.561Z,8.60
2023-03-27T15:51:22.631Z,8.57
2023-03-27T15:53:53.993Z,6.63
2023-03-27T15:56:39.690Z,8.95
2023-03-27T15:59:16.070Z,7.15
2023-03-27T16:01:52.480Z,4.15
2023-03-27T16:04:27.835Z,4.32
2023-03-27T16:07:16.850Z,6.35
2023-03-27T16:10:05.200Z,7.35
2023-03-27T16:12:52.342Z,5.80
2023-03-27T16:15:36.933Z,4.03
2023-03-27T16:18:19.927Z,4.88
2023-03-27T16:20:47.561Z,4.38
2023-03-27T16:23:14.854Z,2.55
2023-03-27T16:25:42.673Z,4.85
2023-03-27T16:28:11.152Z,6.82
2023-03-27T16:30:41.533Z,6.60
2023-03-27T16:33:19.066Z,4.15
2023-03-27T16:35:46.839Z,2.45
2023-03-27T16:38:14.394Z,6.35
2023-03-27T16:40:43.545Z,8.55
2023-03-27T16:43:11.114Z,5.00
2023-03-27T16:45:39.121Z,4.35
2023-03-27T16:48:08.425Z,6.82
2023-03-27T16:50:37.373Z,5.95
2023-03-27T16:53:04.710Z,8.55
2023-03-27T16:55:32.910Z,6.90
2023-03-27T16:58:00.604Z,8.02
2023-03-27T17:00:28.987Z,7.97
2023-03-27T17:02:56.683Z,5.78
2023-03-27T17:05:25.180Z,3.92
2023-03-27T17:07:52.751Z,3.65
2023-03-27T17:10:21.307Z,5.18
2023-03-27T17:12:48.503Z,3.50
2023-03-27T17:15:16.667Z,2.60
2023-03-27T17:17:45.392Z,4.70
2023-03-27T17:20:13.924Z,6.95
2023-03-27T17:22:41.290Z,6.70
2023-03-27T17:25:10.217Z,6.68
2023-03-27T17:27:37.791Z,10.40
2023-03-27T17:30:07.401Z,9.18
2023-03-27T17:32:34.540Z,8.77
2023-03-27T17:35:04.417Z,6.35
2023-03-27T17:37:31.507Z,9.00
2023-03-27T17:39:59.206Z,12.18
2023-03-27T17:42:26.474Z,15.80
2023-03-27T17:44:53.972Z,14.05
2023-03-27T17:47:21.773Z,11.02
2023-03-27T17:49:49.530Z,10.98
2023-03-27T17:52:16.790Z,12.13
2023-03-27T17:54:44.658Z,7.63
2023-03-27T17:57:12.137Z,11.60
2023-03-27T17:59:39.924Z,8.20
2023-03-27T18:02:07.776Z,12.50
2023-03-27T18:04:37.151Z,11.65
2023-03-27T18:07:04.418Z,9.60
2023-03-27T18:09:34.564Z,10.68
2023-03-27T18:12:01.768Z,9.27
2023-03-27T18:14:29.316Z,15.23
2023-03-27T18:16:56.629Z,9.90
2023-03-27T18:19:25.432Z,10.48
2023-03-27T18:21:52.717Z,3.50
2023-03-27T18:24:20.430Z,7.38
2023-03-27T18:26:48.187Z,8.65
2023-03-27T18:29:16.197Z,12.20
2023-03-27T18:31:43.903Z,7.50
2023-03-27T18:34:11.598Z,9.95
2023-03-27T18:36:39.073Z,11.27
2023-03-27T18:39:06.838Z,10.98
2023-03-27T18:41:35.931Z,11.60
2023-03-27T18:44:03.302Z,12.00
2023-03-27T18:46:30.540Z,12.10
2023-03-27T18:49:00.624Z,12.60
2023-03-27T18:51:34.349Z,12.70
2023-03-27T18:54:03.100Z,9.85
2023-03-27T18:56:30.591Z,8.50
2023-03-27T18:58:58.256Z,8.25
2023-03-27T19:01:26.913Z,7.30
2023-03-27T19:04:00.884Z,7.03
2023-03-27T19:06:28.530Z,8.50
2023-03-27T19:08:57.064Z,9.38
2023-03-27T19:11:24.200Z,8.98
2023-03-27T19:14:35.040Z,8.20
2023-03-27T19:17:27.351Z,8.95
2023-03-27T19:20:15.468Z,8.15
2023-03-27T19:23:04.246Z,8.52
2023-03-27T19:25:35.731Z,7.93
2023-03-27T19:28:05.144Z,8.23
2023-03-27T19:30:36.155Z,8.30
2023-03-27T19:33:03.643Z,9.18
2023-03-27T19:35:31.967Z,10.20
2023-03-27T19:37:59.421Z,9.98
2023-03-27T19:40:27.226Z,8.98
2023-03-27T19:42:54.619Z,9.15
2023-03-27T19:45:22.147Z,9.25
2023-03-27T19:47:49.282Z,8.38
2023-03-27T19:50:17.118Z,9.10
2023-03-27T19:53:05.528Z,7.03
2023-03-27T19:55:36.036Z,6.68
2023-03-27T19:58:03.213Z,8.60
2023-03-27T20:00:32.333Z,6.28
2023-03-27T20:02:59.913Z,9.70
2023-03-27T20:05:30.013Z,9.10
2023-03-27T20:07:57.262Z,9.82
2023-03-27T20:10:27.131Z,11.23
2023-03-27T20:12:54.565Z,10.90
2023-03-27T20:15:22.779Z,10.70
2023-03-27T20:17:49.947Z,14.02
2023-03-27T20:20:20.450Z,13.68
2023-03-27T20:22:56.830Z,11.88
2023-03-27T20:25:25.974Z,11.30
2023-03-27T20:27:53.317Z,9.55
2023-03-27T20:30:21.004Z,9.40
2023-03-27T20:32:50.315Z,12.07
2023-03-27T20:35:24.329Z,10.52
2023-03-27T20:37:58.060Z,10.75
2023-03-27T20:40:30.198Z,10.48
2023-03-27T20:43:03.757Z,11.00
2023-03-27T20:45:31.796Z,12.02
2023-03-27T20:48:03.482Z,12.23
2023-03-27T20:50:35.109Z,10.77
2023-03-27T20:53:04.374Z,13.30
2023-03-27T20:55:37.585Z,13.25
2023-03-27T20:58:06.810Z,12.38
2023-03-27T21:00:35.177Z,13.65
2023-03-27T21:03:02.852Z,13.38
2023-03-27T21:05:33.013Z,14.30
2023-03-27T21:08:00.245Z,14.60
2023-03-27T21:10:27.666Z,14.05
2023-03-27T21:12:56.744Z,15.73
2023-03-27T21:15:25.013Z,16.08
2023-03-27T21:17:52.423Z,16.67
2023-03-27T21:20:20.367Z,13.27
2023-03-27T21:22:52.701Z,14.52
2023-03-27T21:25:21.982Z,11.73
2023-03-27T21:27:54.562Z,16.17
2023-03-27T21:30:22.882Z,16.30
2023-03-27T21:32:50.814Z,12.95
2023-03-27T21:35:19.018Z,15.57
2023-03-27T21:37:46.424Z,15.32
2023-03-27T21:40:14.468Z,15.32
2023-03-27T21:42:41.813Z,15.10
2023-03-27T21:45:09.609Z,14.13
2023-03-27T21:47:47.021Z,19.05
2023-03-27T21:50:15.971Z,26.02
2023-03-27T21:52:43.093Z,33.95
2023-03-27T21:55:10.635Z,37.65
2023-03-27T21:57:37.979Z,38.67
2023-03-27T22:00:08.468Z,34.45
2023-03-27T22:02:41.376Z,34.95
2023-03-27T22:05:10.077Z,37.30
2023-03-27T22:07:37.466Z,34.80
2023-03-27T22:10:06.735Z,39.88
2023-03-27T22:12:38.833Z,33.33
2023-03-27T22:17:38.478Z,29.77
2023-03-27T22:20:07.849Z,28.50
2023-03-27T22:22:35.701Z,28.35
2023-03-27T22:25:04.720Z,28.27
2023-03-27T22:27:32.665Z,22.98
2023-03-27T22:30:00.049Z,21.48
2023-03-27T22:32:27.613Z,20.35
2023-03-27T22:34:55.252Z,21.92
2023-03-27T22:37:25.282Z,22.10
2023-03-27T22:39:53.291Z,24.58
2023-03-27T22:42:20.457Z,29.85
2023-03-27T22:44:48.166Z,31.80
2023-03-27T22:47:15.516Z,42.67
2023-03-27T22:49:43.042Z,41.22
2023-03-27T22:52:10.272Z,38.30
2023-03-27T22:54:37.961Z,41.80
2023-03-27T22:57:05.075Z,38.72
2023-03-27T22:59:33.216Z,36.88
2023-03-27T23:02:00.483Z,40.17
2023-03-27T23:04:31.449Z,36.30
2023-03-27T23:07:01.819Z,37.58
2023-03-27T23:09:29.186Z,33.53
2023-03-27T23:11:56.790Z,33.28
2023-03-27T23:14:24.104Z,36.38
2023-03-27T23:16:51.814Z,33.20
2023-03-27T23:19:19.289Z,32.88
2023-03-27T23:21:46.736Z,31.05
2023-03-27T23:24:14.256Z,27.77
2023-03-27T23:26:41.681Z,30.80
2023-03-27T23:29:09.193Z,26.48
2023-03-27T23:31:36.526Z,21.42
2023-03-27T23:34:04.257Z,23.00
2023-03-27T23:36:31.498Z,21.25
2023-03-27T23:38:58.867Z,19.48
2023-03-27T23:41:26.201Z,17.40
2023-03-27T23:43:54.041Z,18.10
2023-03-27T23:46:21.246Z,18.35
2023-03-27T23:48:48.941Z,18.00
2023-03-27T23:51:17.512Z,16.33
2023-03-27T23:53:45.590Z,17.90
2023-03-27T23:56:13.018Z,18.95
2023-03-27T23:58:40.686Z,14.45
